createdAt,value
2023-04-12T00:03:10.323Z,100651.81
2023-04-12T00:08:11.870Z,100635.34
2023-04-12T00:13:13.311Z,100628.25
2023-04-12T00:18:14.821Z,100622.91
2023-04-12T00:23:17.284Z,100596.66
2023-04-12T00:28:19.103Z,100578.78
2023-04-12T00:33:20.661Z,100579.75
2023-04-12T00:38:22.146Z,100571.91
2023-04-12T00:43:27.248Z,100554.41
2023-04-12T00:48:29.495Z,100541.19
2023-04-12T00:53:31.687Z,100529.50
2023-04-12T00:58:33.159Z,100512.63
2023-04-12T01:03:34.880Z,100495.16
2023-04-12T01:09:20.447Z,100480.88
2023-04-12T01:14:41.168Z,100462.13
2023-04-12T01:20:09.858Z,100459.19
2023-04-12T01:25:29.909Z,100449.88
2023-04-12T01:30:32.524Z,100429.84
2023-04-12T01:35:35.381Z,100417.13
2023-04-12T01:40:40.588Z,100375.13
2023-04-12T01:45:42.125Z,100376.19
2023-04-12T01:50:48.396Z,100364.03
2023-04-12T01:55:51.160Z,100340.03
2023-04-12T02:00:54.429Z,100318.09
2023-04-12T02:05:58.793Z,100303.09
2023-04-12T02:11:00.567Z,100283.72
2023-04-12T02:16:02.383Z,100269.81
2023-04-12T02:21:08.009Z,100248.50
2023-04-12T02:26:12.755Z,100236.56
2023-04-12T02:31:15.486Z,100225.22
2023-04-12T02:36:18.567Z,100199.28
2023-04-12T02:41:22.436Z,100186.44
2023-04-12T02:46:27.211Z,100176.41
2023-04-12T02:51:33.831Z,100152.38
2023-04-12T02:56:36.191Z,100125.97
2023-04-12T03:01:46.641Z,100111.06
2023-04-12T03:06:58.271Z,100101.06
2023-04-12T03:12:07.215Z,100090.63
2023-04-12T03:17:14.473Z,100077.00
2023-04-12T03:22:17.115Z,100057.56
2023-04-12T03:27:22.815Z,100054.19
2023-04-12T03:32:26.480Z,100032.63
2023-04-12T03:37:30.001Z,100020.53
2023-04-12T03:42:33.785Z,100012.19
2023-04-12T03:47:49.738Z,99999.31
2023-04-12T03:52:53.600Z,99987.22
2023-04-12T03:57:56.977Z,99986.41
2023-04-12T04:03:04.122Z,99982.47
2023-04-12T04:08:11.636Z,99978.69
2023-04-12T04:13:25.214Z,99966.94
2023-04-12T04:18:32.801Z,99960.88
2023-04-12T04:23:38.850Z,99953.19
2023-04-12T04:28:45.047Z,99953.28
2023-04-12T04:33:50.814Z,99941.19
2023-04-12T04:38:54.842Z,99923.72
2023-04-12T04:44:10.277Z,99905.19
2023-04-12T04:49:17.158Z,99893.19
2023-04-12T04:54:18.665Z,99878.59
2023-04-12T04:59:20.256Z,99874.19
2023-04-12T05:04:21.744Z,99851.72
2023-04-12T05:09:23.263Z,99847.16
2023-04-12T05:14:44.034Z,99866.53
2023-04-12T05:19:47.348Z,99874.84
2023-04-12T05:24:49.354Z,99866.22
2023-04-12T05:29:51.273Z,99848.47
2023-04-12T05:34:54.379Z,99840.19
2023-04-12T05:39:57.670Z,99816.19
2023-04-12T05:44:59.262Z,99802.31
2023-04-12T05:50:00.916Z,99802.59
2023-04-12T05:55:02.922Z,99792.47
2023-04-12T06:00:10.643Z,99791.47
2023-04-12T06:05:16.979Z,99784.22
2023-04-12T06:10:19.652Z,99782.41
2023-04-12T06:15:24.768Z,99786.63
2023-04-12T06:20:28.769Z,99777.00
2023-04-12T06:25:30.407Z,99769.44
2023-04-12T06:30:33.289Z,99766.38
2023-04-12T06:35:34.852Z,99749.03
2023-04-12T06:40:37.533Z,99729.00
2023-04-12T06:45:38.988Z,99722.03
2023-04-12T06:50:40.535Z,99705.53
2023-04-12T06:55:42.027Z,99702.19
2023-04-12T07:00:43.539Z,99689.50
2023-04-12T07:05:45.167Z,99706.66
2023-04-12T07:10:46.643Z,99705.03
2023-04-12T07:15:52.810Z,99692.16
2023-04-12T07:20:56.791Z,99688.88
2023-04-12T07:26:02.265Z,99684.50
2023-04-12T07:31:07.447Z,99672.63
2023-04-12T07:36:09.374Z,99666.00
2023-04-12T07:41:11.000Z,99666.56
2023-04-12T07:46:12.478Z,99643.44
2023-04-12T07:51:14.104Z,99629.81
2023-04-12T07:56:15.832Z,99633.06
2023-04-12T08:01:17.285Z,99623.91
2023-04-12T08:06:18.804Z,99628.13
2023-04-12T08:11:20.503Z,99628.09
2023-04-12T08:16:22.124Z,99628.28
2023-04-12T08:21:23.681Z,99625.44
2023-04-12T08:26:26.569Z,99630.97
2023-04-12T08:31:28.328Z,99635.91
2023-04-12T08:36:30.149Z,99628.13
2023-04-12T08:41:35.384Z,99604.97
2023-04-12T08:46:37.715Z,99615.31
2023-04-12T08:51:40.774Z,99648.94
2023-04-12T08:56:44.045Z,99638.78
2023-04-12T09:01:45.863Z,99647.38
2023-04-12T09:06:47.541Z,99652.63
2023-04-12T09:11:48.991Z,99647.69
2023-04-12T09:16:51.275Z,99649.34
2023-04-12T09:21:56.165Z,99648.66
2023-04-12T09:27:05.968Z,99664.97
2023-04-12T09:32:08.738Z,99659.78
2023-04-12T09:37:14.731Z,99656.28
2023-04-12T09:42:32.494Z,99661.44
2023-04-12T09:47:40.347Z,99663.94
2023-04-12T09:52:41.967Z,99646.09
2023-04-12T09:57:44.686Z,99666.69
2023-04-12T10:02:48.648Z,99671.03
2023-04-12T10:07:50.810Z,99680.28
2023-04-12T10:12:52.762Z,99672.75
2023-04-12T10:17:55.296Z,99699.44
2023-04-12T10:22:59.402Z,99697.72
2023-04-12T10:28:14.675Z,99708.06
2023-04-12T10:33:18.304Z,99725.25
2023-04-12T10:38:20.073Z,99713.94
2023-04-12T10:43:28.744Z,99702.63
2023-04-12T10:48:31.359Z,99711.19
2023-04-12T10:53:32.908Z,99713.13
2023-04-12T10:58:46.465Z,99737.94
2023-04-12T11:04:20.966Z,99727.44
2023-04-12T11:09:36.186Z,99731.03
2023-04-12T11:14:38.624Z,99729.78
2023-04-12T11:19:53.621Z,99720.97
2023-04-12T11:24:57.604Z,99716.63
2023-04-12T11:30:00.811Z,99731.22
2023-04-12T11:35:02.755Z,99723.69
2023-04-12T11:40:09.361Z,99732.72
2023-04-12T11:45:17.205Z,99733.41
2023-04-12T11:50:30.813Z,99740.09
2023-04-12T11:55:32.300Z,99739.59
2023-04-12T12:00:33.914Z,99742.72
2023-04-12T12:05:38.507Z,99736.53
2023-04-12T12:10:52.282Z,99727.81
2023-04-12T12:16:01.963Z,99724.84
2023-04-12T12:21:03.587Z,99722.59
2023-04-12T12:26:18.458Z,99729.19
2023-04-12T12:31:25.334Z,99718.28
2023-04-12T12:36:34.538Z,99706.22
2023-04-12T12:41:36.894Z,99695.84
2023-04-12T12:51:43.074Z,99708.72
2023-04-12T12:56:44.918Z,99725.25
2023-04-12T13:01:46.481Z,99725.09
2023-04-12T13:06:48.106Z,99722.34
2023-04-12T13:11:49.607Z,99705.31
2023-04-12T13:16:51.273Z,99713.13
2023-04-12T13:21:53.324Z,99730.19
2023-04-12T13:26:55.875Z,99737.97
2023-04-12T13:31:57.454Z,99750.00
2023-04-12T13:36:59.627Z,99740.59
2023-04-12T13:42:02.213Z,99736.47
2023-04-12T13:47:03.926Z,99720.97
2023-04-12T13:52:05.395Z,99725.22
2023-04-12T13:57:07.156Z,99738.19
2023-04-12T14:02:08.706Z,99742.50
2023-04-12T14:07:10.261Z,99791.75
2023-04-12T14:12:11.753Z,99805.09
2023-04-12T14:17:13.297Z,99797.97
2023-04-12T14:22:14.912Z,99787.34
2023-04-12T14:27:17.983Z,99783.75
2023-04-12T14:32:19.824Z,99769.59
2023-04-12T14:37:21.425Z,99766.25
2023-04-12T14:42:22.876Z,99757.44
2023-04-12T14:47:24.355Z,99767.72
2023-04-12T14:52:26.192Z,99768.78
2023-04-12T14:57:27.655Z,99777.13
2023-04-12T15:02:29.319Z,99788.41
2023-04-12T15:07:30.988Z,99803.56
2023-04-12T15:12:37.363Z,99810.53
2023-04-12T15:17:39.009Z,99814.69
2023-04-12T15:22:40.942Z,99811.56
2023-04-12T15:27:44.031Z,99811.56
2023-04-12T15:32:46.954Z,99824.41
2023-04-12T15:37:48.464Z,99828.53
2023-04-12T15:42:50.008Z,99854.34
2023-04-12T15:47:51.537Z,99864.56
2023-04-12T15:52:55.275Z,99871.53
2023-04-12T15:57:57.114Z,99881.00
2023-04-12T16:02:58.735Z,99903.94
2023-04-12T16:08:00.705Z,99954.31
2023-04-12T16:13:02.176Z,99951.84
2023-04-12T16:18:03.913Z,99927.09
2023-04-12T16:23:05.768Z,99884.25
2023-04-12T16:28:08.077Z,99857.53
2023-04-12T16:33:10.870Z,99841.63
2023-04-12T16:38:14.687Z,99830.91
2023-04-12T16:43:17.374Z,99825.91
2023-04-12T16:48:19.004Z,99837.69
2023-04-12T16:53:20.934Z,99829.97
2023-04-12T16:58:24.012Z,99828.06
2023-04-12T17:03:25.857Z,99819.09
2023-04-12T17:08:27.390Z,99810.41
2023-04-12T17:13:30.211Z,99817.81
2023-04-12T17:18:32.023Z,99828.56
2023-04-12T17:23:33.488Z,99849.25
2023-04-12T17:28:36.034Z,99855.00
2023-04-12T17:33:37.669Z,99856.81
2023-04-12T17:38:39.304Z,99859.22
2023-04-12T17:43:40.760Z,99853.56
2023-04-12T17:48:42.230Z,99854.66
2023-04-12T17:53:43.871Z,99852.50
2023-04-12T17:58:45.349Z,99859.78
2023-04-12T18:03:47.624Z,99864.09
2023-04-12T18:08:49.204Z,99866.97
2023-04-12T18:13:50.930Z,99868.75
2023-04-12T18:18:52.467Z,99859.25
2023-04-12T18:23:53.980Z,99866.25
2023-04-12T18:28:55.706Z,99862.84
2023-04-12T18:33:57.623Z,99869.09
2023-04-12T18:38:59.319Z,99876.50
2023-04-12T18:44:00.972Z,99867.16
2023-04-12T18:49:04.455Z,99869.25
2023-04-12T18:54:08.331Z,99860.97
2023-04-12T18:59:15.874Z,99861.53
2023-04-12T19:04:18.147Z,99864.78
2023-04-12T19:09:19.679Z,99858.75
2023-04-12T19:14:21.138Z,99858.91
2023-04-12T19:19:22.848Z,99861.53
2023-04-12T19:24:24.498Z,99862.53
2023-04-12T19:29:26.063Z,99859.28
2023-04-12T19:34:27.577Z,99854.28
2023-04-12T19:39:29.378Z,99859.03
2023-04-12T19:44:31.340Z,99855.09
2023-04-12T19:49:33.812Z,99838.84
2023-04-12T19:54:35.301Z,99835.72
2023-04-12T19:59:36.870Z,99838.66
2023-04-12T20:04:39.853Z,99835.50
2023-04-12T20:09:41.319Z,99824.81
2023-04-12T20:14:42.973Z,99831.38
2023-04-12T20:19:44.457Z,99819.81
2023-04-12T20:24:47.567Z,99808.84
2023-04-12T20:29:49.514Z,99823.09
2023-04-12T20:34:50.988Z,99811.56
2023-04-12T20:39:52.452Z,99806.28
2023-04-12T20:44:54.446Z,99804.03
2023-04-12T20:49:56.314Z,99790.19
2023-04-12T20:54:57.785Z,99785.56
2023-04-12T20:59:59.528Z,99778.69
2023-04-12T21:05:01.012Z,99771.88
2023-04-12T21:10:02.521Z,99782.56
2023-04-12T21:15:05.855Z,99777.97
2023-04-12T21:20:13.518Z,99758.78
2023-04-12T21:25:16.627Z,99765.34
2023-04-12T21:30:18.969Z,99752.59
2023-04-12T21:35:23.377Z,99748.59
2023-04-12T21:40:25.037Z,99741.44
2023-04-12T21:45:27.384Z,99721.44
2023-04-12T21:50:28.943Z,99727.34
2023-04-12T21:55:30.542Z,99722.88
2023-04-12T22:00:32.166Z,99718.59
2023-04-12T22:05:35.861Z,99724.25
2023-04-12T22:10:37.356Z,99719.31
2023-04-12T22:15:38.856Z,99715.75
2023-04-12T22:20:41.293Z,99712.09
2023-04-12T22:25:43.060Z,99695.69
2023-04-12T22:30:46.713Z,99691.13
2023-04-12T22:35:48.532Z,99677.16
2023-04-12T22:40:51.041Z,99666.75
2023-04-12T22:45:54.012Z,99665.00
2023-04-12T22:50:55.583Z,99656.56
2023-04-12T22:55:57.410Z,99641.28
2023-04-12T23:00:58.877Z,99634.31
2023-04-12T23:06:00.354Z,99630.97
2023-04-12T23:11:03.581Z,99628.31
2023-04-12T23:16:06.736Z,99620.97
2023-04-12T23:21:11.080Z,99626.59
2023-04-12T23:26:13.210Z,99617.59
2023-04-12T23:31:15.179Z,99622.63
2023-04-12T23:36:16.760Z,99603.97
2023-04-12T23:41:18.426Z,99607.84
2023-04-12T23:46:21.491Z,99590.72
2023-04-12T23:51:23.048Z,99569.72
2023-04-12T23:56:24.483Z,99558.88
